sensor_id;sensor_type;location;lat;lon;timestamp;pressure;altitude;pressure_sealevel;temperature;humidity
16100;BME280;8154;50.830;12.082;2022-12-20T00:00:30;99836.78;;;22.03;28.18
16100;BME280;8154;50.830;12.082;2022-12-20T00:03:28;99824.81;;;21.99;28.19
16100;BME280;8154;50.830;12.082;2022-12-20T00:06:12;99834.03;;;21.88;28.32
16100;BME280;8154;50.830;12.082;2022-12-20T00:09:01;99828.19;;;21.93;28.34
16100;BME280;8154;50.830;12.082;2022-12-20T00:11:40;99825.41;;;21.86;28.45
16100;BME280;8154;50.830;12.082;2022-12-20T00:14:24;99829.56;;;21.89;28.30
16100;BME280;8154;50.830;12.082;2022-12-20T00:17:07;99818.97;;;22.03;28.17
16100;BME280;8154;50.830;12.082;2022-12-20T00:19:58;99822.78;;;22.09;28.12
16100;BME280;8154;50.830;12.082;2022-12-20T00:22:45;99822.50;;;21.96;28.23
16100;BME280;8154;50.830;12.082;2022-12-20T00:25:35;99826.19;;;21.95;28.24
16100;BME280;8154;50.830;12.082;2022-12-20T00:28:19;99823.75;;;21.85;28.32
16100;BME280;8154;50.830;12.082;2022-12-20T00:31:05;99812.88;;;21.95;28.29
16100;BME280;8154;50.830;12.082;2022-12-20T00:33:51;99797.19;;;22.00;28.24
16100;BME280;8154;50.830;12.082;2022-12-20T00:36:56;99790.56;;;21.96;28.34
16100;BME280;8154;50.830;12.082;2022-12-20T00:39:54;99796.19;;;22.01;28.23
16100;BME280;8154;50.830;12.082;2022-12-20T00:42:38;99793.59;;;21.93;28.34
16100;BME280;8154;50.830;12.082;2022-12-20T00:45:23;99791.88;;;22.00;28.23
16100;BME280;8154;50.830;12.082;2022-12-20T00:48:07;99791.59;;;21.95;28.29
16100;BME280;8154;50.830;12.082;2022-12-20T00:51:14;99792.75;;;21.92;28.21
16100;BME280;8154;50.830;12.082;2022-12-20T00:53:58;99786.63;;;21.92;28.33
16100;BME280;8154;50.830;12.082;2022-12-20T00:56:59;99790.28;;;21.91;28.35
16100;BME280;8154;50.830;12.082;2022-12-20T01:00:04;99801.72;;;21.99;28.25
16100;BME280;8154;50.830;12.082;2022-12-20T01:02:59;99803.34;;;22.00;28.18
16100;BME280;8154;50.830;12.082;2022-12-20T01:05:49;99797.44;;;21.90;28.40
16100;BME280;8154;50.830;12.082;2022-12-20T01:08:36;99806.91;;;21.93;28.34
16100;BME280;8154;50.830;12.082;2022-12-20T01:11:42;99806.00;;;22.00;28.22
16100;BME280;8154;50.830;12.082;2022-12-20T01:14:31;99821.13;;;22.00;28.25
16100;BME280;8154;50.830;12.082;2022-12-20T01:17:17;99822.34;;;21.97;28.25
16100;BME280;8154;50.830;12.082;2022-12-20T01:20:21;99823.97;;;21.98;28.25
16100;BME280;8154;50.830;12.082;2022-12-20T01:23:25;99812.88;;;21.95;28.38
16100;BME280;8154;50.830;12.082;2022-12-20T01:25:59;99817.00;;;21.97;28.22
16100;BME280;8154;50.830;12.082;2022-12-20T01:29:04;99802.78;;;21.90;28.24
16100;BME280;8154;50.830;12.082;2022-12-20T01:32:02;99807.63;;;21.87;28.43
16100;BME280;8154;50.830;12.082;2022-12-20T01:34:46;99813.13;;;21.85;28.44
16100;BME280;8154;50.830;12.082;2022-12-20T01:37:30;99818.44;;;21.85;28.51
16100;BME280;8154;50.830;12.082;2022-12-20T01:40:38;99832.22;;;21.89;28.48
16100;BME280;8154;50.830;12.082;2022-12-20T01:43:22;99830.09;;;21.84;28.53
16100;BME280;8154;50.830;12.082;2022-12-20T01:46:07;99838.75;;;21.78;28.65
16100;BME280;8154;50.830;12.082;2022-12-20T01:49:06;99844.03;;;21.86;28.62
16100;BME280;8154;50.830;12.082;2022-12-20T01:52:06;99843.41;;;21.84;28.58
16100;BME280;8154;50.830;12.082;2022-12-20T01:55:17;99831.25;;;21.74;28.71
16100;BME280;8154;50.830;12.082;2022-12-20T01:58:07;99831.63;;;21.71;28.76
16100;BME280;8154;50.830;12.082;2022-12-20T02:01:06;99826.28;;;21.71;28.84
16100;BME280;8154;50.830;12.082;2022-12-20T02:03:58;99811.78;;;21.81;28.71
16100;BME280;8154;50.830;12.082;2022-12-20T02:06:50;99802.78;;;21.90;28.54
16100;BME280;8154;50.830;12.082;2022-12-20T02:09:36;99802.94;;;21.89;28.57
16100;BME280;8154;50.830;12.082;2022-12-20T02:12:23;99792.88;;;21.99;28.42
16100;BME280;8154;50.830;12.082;2022-12-20T02:18:28;99793.38;;;22.02;28.41
16100;BME280;8154;50.830;12.082;2022-12-20T02:27:43;99784.84;;;21.84;28.71
16100;BME280;8154;50.830;12.082;2022-12-20T02:30:38;99782.94;;;21.93;28.51
16100;BME280;8154;50.830;12.082;2022-12-20T02:33:41;99777.22;;;22.04;28.40
16100;BME280;8154;50.830;12.082;2022-12-20T02:36:26;99759.47;;;21.96;28.37
16100;BME280;8154;50.830;12.082;2022-12-20T02:39:12;99766.63;;;21.96;28.48
16100;BME280;8154;50.830;12.082;2022-12-20T02:42:24;99763.56;;;21.84;28.59
16100;BME280;8154;50.830;12.082;2022-12-20T02:45:17;99771.66;;;21.91;28.50
16100;BME280;8154;50.830;12.082;2022-12-20T02:48:09;99763.84;;;21.89;28.71
16100;BME280;8154;50.830;12.082;2022-12-20T02:50:56;99757.59;;;21.74;28.76
16100;BME280;8154;50.830;12.082;2022-12-20T02:53:53;99746.47;;;21.79;28.78
16100;BME280;8154;50.830;12.082;2022-12-20T02:56:41;99749.59;;;21.82;28.76
16100;BME280;8154;50.830;12.082;2022-12-20T02:59:54;99750.44;;;21.83;28.72
16100;BME280;8154;50.830;12.082;2022-12-20T03:02:40;99743.75;;;21.87;28.73
16100;BME280;8154;50.830;12.082;2022-12-20T03:05:54;99747.25;;;21.87;28.73
16100;BME280;8154;50.830;12.082;2022-12-20T03:08:39;99751.91;;;21.85;28.72
16100;BME280;8154;50.830;12.082;2022-12-20T03:11:23;99755.66;;;21.76;28.81
16100;BME280;8154;50.830;12.082;2022-12-20T03:14:07;99750.31;;;21.76;28.91
16100;BME280;8154;50.830;12.082;2022-12-20T03:16:56;99757.53;;;21.90;28.71
16100;BME280;8154;50.830;12.082;2022-12-20T03:19:58;99749.00;;;21.95;28.65
16100;BME280;8154;50.830;12.082;2022-12-20T03:22:56;99742.78;;;22.02;28.49
16100;BME280;8154;50.830;12.082;2022-12-20T03:26:00;99751.13;;;21.99;28.49
16100;BME280;8154;50.830;12.082;2022-12-20T03:28:46;99734.88;;;21.94;28.58
16100;BME280;8154;50.830;12.082;2022-12-20T03:31:30;99724.59;;;21.91;28.65
16100;BME280;8154;50.830;12.082;2022-12-20T03:34:14;99734.34;;;21.99;28.50
16100;BME280;8154;50.830;12.082;2022-12-20T03:36:59;99739.84;;;21.97;28.52
16100;BME280;8154;50.830;12.082;2022-12-20T03:39:54;99741.03;;;21.95;28.71
16100;BME280;8154;50.830;12.082;2022-12-20T03:42:49;99737.19;;;21.97;28.51
16100;BME280;8154;50.830;12.082;2022-12-20T03:45:33;99744.69;;;21.94;28.68
16100;BME280;8154;50.830;12.082;2022-12-20T03:48:31;99749.47;;;21.98;28.59
16100;BME280;8154;50.830;12.082;2022-12-20T03:51:16;99752.78;;;22.00;28.57
16100;BME280;8154;50.830;12.082;2022-12-20T03:54:20;99761.44;;;22.02;28.53
16100;BME280;8154;50.830;12.082;2022-12-20T03:57:05;99766.63;;;21.96;28.65
16100;BME280;8154;50.830;12.082;2022-12-20T03:59:51;99760.00;;;21.92;28.70
16100;BME280;8154;50.830;12.082;2022-12-20T04:02:37;99749.25;;;21.85;28.84
16100;BME280;8154;50.830;12.082;2022-12-20T04:05:07;99741.66;;;21.97;28.63
16100;BME280;8154;50.830;12.082;2022-12-20T04:07:51;99742.13;;;22.00;28.56
16100;BME280;8154;50.830;12.082;2022-12-20T04:10:36;99731.56;;;21.92;28.72
16100;BME280;8154;50.830;12.082;2022-12-20T04:13:57;99724.53;;;21.99;28.63
16100;BME280;8154;50.830;12.082;2022-12-20T04:16:41;99717.09;;;21.95;28.60
16100;BME280;8154;50.830;12.082;2022-12-20T04:19:27;99725.41;;;21.92;28.65
16100;BME280;8154;50.830;12.082;2022-12-20T04:22:18;99725.84;;;21.81;28.83
16100;BME280;8154;50.830;12.082;2022-12-20T04:24:44;99717.03;;;21.80;28.89
16100;BME280;8154;50.830;12.082;2022-12-20T04:27:28;99709.69;;;21.82;28.73
16100;BME280;8154;50.830;12.082;2022-12-20T04:30:20;99705.47;;;21.88;28.71
16100;BME280;8154;50.830;12.082;2022-12-20T04:33:04;99717.09;;;21.95;28.71
16100;BME280;8154;50.830;12.082;2022-12-20T04:35:48;99722.97;;;22.05;28.57
16100;BME280;8154;50.830;12.082;2022-12-20T04:38:33;99729.84;;;21.99;28.63
16100;BME280;8154;50.830;12.082;2022-12-20T04:41:17;99717.88;;;21.95;28.60
16100;BME280;8154;50.830;12.082;2022-12-20T04:44:07;99708.69;;;21.83;28.77
16100;BME280;8154;50.830;12.082;2022-12-20T04:46:52;99721.56;;;21.94;28.62
16100;BME280;8154;50.830;12.082;2022-12-20T04:49:36;99701.84;;;21.89;28.78
16100;BME280;8154;50.830;12.082;2022-12-20T04:52:23;99704.69;;;21.87;28.84
16100;BME280;8154;50.830;12.082;2022-12-20T04:55:29;99700.22;;;22.02;28.69
16100;BME280;8154;50.830;12.082;2022-12-20T04:58:24;99701.38;;;22.00;28.47
16100;BME280;8154;50.830;12.082;2022-12-20T05:01:16;99708.56;;;21.99;28.64
16100;BME280;8154;50.830;12.082;2022-12-20T05:04:00;99707.25;;;21.95;28.66
16100;BME280;8154;50.830;12.082;2022-12-20T05:06:58;99697.84;;;22.07;28.54
16100;BME280;8154;50.830;12.082;2022-12-20T05:10:03;99699.97;;;21.89;28.74
16100;BME280;8154;50.830;12.082;2022-12-20T05:12:47;99697.31;;;21.89;28.80
16100;BME280;8154;50.830;12.082;2022-12-20T05:15:52;99704.75;;;21.94;28.80
16100;BME280;8154;50.830;12.082;2022-12-20T05:18:42;99709.22;;;22.01;28.61
16100;BME280;8154;50.830;12.082;2022-12-20T05:21:37;99693.06;;;22.03;28.66
16100;BME280;8154;50.830;12.082;2022-12-20T05:24:40;99675.78;;;21.99;28.66
16100;BME280;8154;50.830;12.082;2022-12-20T05:27:45;99672.47;;;21.97;28.77
16100;BME280;8154;50.830;12.082;2022-12-20T05:30:36;99665.13;;;21.99;28.83
16100;BME280;8154;50.830;12.082;2022-12-20T05:33:28;99668.59;;;21.85;28.88
16100;BME280;8154;50.830;12.082;2022-12-20T05:36:13;99669.53;;;21.92;28.75
16100;BME280;8154;50.830;12.082;2022-12-20T05:39:11;99674.69;;;21.93;28.79
16100;BME280;8154;50.830;12.082;2022-12-20T05:41:56;99672.94;;;22.00;28.77
16100;BME280;8154;50.830;12.082;2022-12-20T05:44:40;99680.44;;;21.97;28.85
16100;BME280;8154;50.830;12.082;2022-12-20T05:47:27;99670.47;;;21.99;28.83
16100;BME280;8154;50.830;12.082;2022-12-20T05:50:11;99672.56;;;22.03;28.74
16100;BME280;8154;50.830;12.082;2022-12-20T05:52:57;99673.47;;;21.96;28.85
16100;BME280;8154;50.830;12.082;2022-12-20T05:55:46;99652.00;;;21.97;28.56
16100;BME280;8154;50.830;12.082;2022-12-20T05:58:20;99648.69;;;21.95;28.82
16100;BME280;8154;50.830;12.082;2022-12-20T06:01:07;99666.97;;;21.98;28.76
16100;BME280;8154;50.830;12.082;2022-12-20T06:04:12;99684.25;;;22.02;28.77
16100;BME280;8154;50.830;12.082;2022-12-20T06:06:56;99673.22;;;22.05;28.67
16100;BME280;8154;50.830;12.082;2022-12-20T06:09:40;99667.06;;;22.05;28.69
16100;BME280;8154;50.830;12.082;2022-12-20T06:12:44;99661.13;;;22.03;28.70
16100;BME280;8154;50.830;12.082;2022-12-20T06:15:39;99665.97;;;21.99;28.78
16100;BME280;8154;50.830;12.082;2022-12-20T06:18:41;99681.47;;;21.96;28.90
16100;BME280;8154;50.830;12.082;2022-12-20T06:21:08;99685.31;;;21.93;28.91
16100;BME280;8154;50.830;12.082;2022-12-20T06:23:55;99678.91;;;22.02;28.81
16100;BME280;8154;50.830;12.082;2022-12-20T06:26:39;99681.41;;;22.04;28.82
16100;BME280;8154;50.830;12.082;2022-12-20T06:29:26;99684.06;;;22.04;28.83
16100;BME280;8154;50.830;12.082;2022-12-20T06:32:10;99688.72;;;22.02;28.82
16100;BME280;8154;50.830;12.082;2022-12-20T06:34:55;99687.56;;;22.04;28.77
16100;BME280;8154;50.830;12.082;2022-12-20T06:37:40;99698.56;;;22.01;28.82
16100;BME280;8154;50.830;12.082;2022-12-20T06:40:11;99712.31;;;22.05;28.71
16100;BME280;8154;50.830;12.082;2022-12-20T06:42:56;99721.22;;;21.97;28.86
16100;BME280;8154;50.830;12.082;2022-12-20T06:45:40;99703.22;;;21.99;28.72
16100;BME280;8154;50.830;12.082;2022-12-20T06:48:35;99705.59;;;21.94;28.94
16100;BME280;8154;50.830;12.082;2022-12-20T06:51:23;99697.72;;;22.01;28.88
16100;BME280;8154;50.830;12.082;2022-12-20T06:54:07;99687.56;;;22.04;28.69
16100;BME280;8154;50.830;12.082;2022-12-20T06:57:05;99693.88;;;22.03;28.76
16100;BME280;8154;50.830;12.082;2022-12-20T06:59:54;99694.47;;;22.13;28.57
16100;BME280;8154;50.830;12.082;2022-12-20T07:02:56;99710.69;;;22.04;28.76
16100;BME280;8154;50.830;12.082;2022-12-20T07:05:42;99704.88;;;22.00;28.75
16100;BME280;8154;50.830;12.082;2022-12-20T07:08:43;99710.91;;;21.94;28.92
16100;BME280;8154;50.830;12.082;2022-12-20T07:11:27;99712.38;;;21.97;28.83
16100;BME280;8154;50.830;12.082;2022-12-20T07:14:29;99708.84;;;22.04;28.78
16100;BME280;8154;50.830;12.082;2022-12-20T07:17:13;99711.69;;;22.03;28.85
16100;BME280;8154;50.830;12.082;2022-12-20T07:19:58;99725.44;;;22.06;28.67
16100;BME280;8154;50.830;12.082;2022-12-20T07:22:42;99715.47;;;22.08;28.73
16100;BME280;8154;50.830;12.082;2022-12-20T07:25:34;99698.47;;;22.09;28.81
16100;BME280;8154;50.830;12.082;2022-12-20T07:28:39;99694.06;;;22.02;28.82
16100;BME280;8154;50.830;12.082;2022-12-20T07:31:37;99689.75;;;22.01;28.75
16100;BME280;8154;50.830;12.082;2022-12-20T07:34:21;99683.75;;;21.99;28.88
16100;BME280;8154;50.830;12.082;2022-12-20T07:37:06;99687.09;;;22.01;28.91
16100;BME280;8154;50.830;12.082;2022-12-20T07:39:51;99690.22;;;22.04;28.77
16100;BME280;8154;50.830;12.082;2022-12-20T07:42:38;99694.34;;;22.07;28.79
16100;BME280;8154;50.830;12.082;2022-12-20T07:45:23;99696.16;;;22.06;28.83
16100;BME280;8154;50.830;12.082;2022-12-20T07:48:07;99685.41;;;22.00;28.79
16100;BME280;8154;50.830;12.082;2022-12-20T07:50:58;99678.44;;;21.99;28.90
16100;BME280;8154;50.830;12.082;2022-12-20T07:53:49;99688.97;;;21.92;28.99
16100;BME280;8154;50.830;12.082;2022-12-20T07:56:42;99693.84;;;21.89;29.10
16100;BME280;8154;50.830;12.082;2022-12-20T07:59:32;99690.34;;;21.88;29.10
16100;BME280;8154;50.830;12.082;2022-12-20T08:02:31;99677.34;;;21.93;29.08
16100;BME280;8154;50.830;12.082;2022-12-20T08:05:28;99692.53;;;22.07;28.62
16100;BME280;8154;50.830;12.082;2022-12-20T08:08:20;99679.94;;;22.01;28.91
16100;BME280;8154;50.830;12.082;2022-12-20T08:11:07;99686.53;;;22.05;28.81
16100;BME280;8154;50.830;12.082;2022-12-20T08:14:10;99682.97;;;22.13;28.74
16100;BME280;8154;50.830;12.082;2022-12-20T08:16:54;99694.34;;;22.07;28.82
16100;BME280;8154;50.830;12.082;2022-12-20T08:19:39;99690.59;;;22.01;28.86
16100;BME280;8154;50.830;12.082;2022-12-20T08:22:23;99688.25;;;21.98;28.95
16100;BME280;8154;50.830;12.082;2022-12-20T08:25:09;99681.09;;;21.99;28.99
16100;BME280;8154;50.830;12.082;2022-12-20T08:27:56;99677.72;;;22.05;28.89
16100;BME280;8154;50.830;12.082;2022-12-20T08:31:04;99669.38;;;22.08;28.85
16100;BME280;8154;50.830;12.082;2022-12-20T08:33:49;99672.69;;;22.10;28.81
16100;BME280;8154;50.830;12.082;2022-12-20T08:36:36;99672.31;;;22.13;28.77
16100;BME280;8154;50.830;12.082;2022-12-20T08:39:31;99668.56;;;22.07;28.83
16100;BME280;8154;50.830;12.082;2022-12-20T08:42:17;99663.03;;;21.94;29.05
16100;BME280;8154;50.830;12.082;2022-12-20T08:45:01;99656.97;;;22.00;28.97
16100;BME280;8154;50.830;12.082;2022-12-20T08:47:45;99660.94;;;22.04;28.93
16100;BME280;8154;50.830;12.082;2022-12-20T08:50:47;99658.84;;;22.14;28.84
16100;BME280;8154;50.830;12.082;2022-12-20T08:53:37;99659.00;;;22.13;28.85
16100;BME280;8154;50.830;12.082;2022-12-20T08:56:22;99662.22;;;22.08;28.94
16100;BME280;8154;50.830;12.082;2022-12-20T08:59:06;99652.66;;;22.14;28.78
16100;BME280;8154;50.830;12.082;2022-12-20T09:01:32;99655.88;;;22.09;28.83
16100;BME280;8154;50.830;12.082;2022-12-20T09:04:17;99658.00;;;21.99;29.07
16100;BME280;8154;50.830;12.082;2022-12-20T09:06:55;99658.47;;;22.03;28.99
16100;BME280;8154;50.830;12.082;2022-12-20T09:09:41;99659.53;;;21.94;28.99
16100;BME280;8154;50.830;12.082;2022-12-20T09:12:26;99666.16;;;21.98;29.03
16100;BME280;8154;50.830;12.082;2022-12-20T09:15:10;99662.88;;;22.10;28.87
16100;BME280;8154;50.830;12.082;2022-12-20T09:17:56;99668.03;;;22.12;28.81
16100;BME280;8154;50.830;12.082;2022-12-20T09:20:43;99669.00;;;22.11;28.83
16100;BME280;8154;50.830;12.082;2022-12-20T09:23:32;99666.25;;;22.04;28.93
16100;BME280;8154;50.830;12.082;2022-12-20T09:26:17;99663.59;;;22.04;28.92
16100;BME280;8154;50.830;12.082;2022-12-20T09:29:03;99654.41;;;22.07;28.76
16100;BME280;8154;50.830;12.082;2022-12-20T09:31:52;99653.47;;;22.00;28.87
16100;BME280;8154;50.830;12.082;2022-12-20T09:34:37;99659.63;;;22.00;29.12
16100;BME280;8154;50.830;12.082;2022-12-20T09:37:04;99657.63;;;22.02;29.03
16100;BME280;8154;50.830;12.082;2022-12-20T09:39:42;99651.88;;;22.13;28.84
16100;BME280;8154;50.830;12.082;2022-12-20T09:42:27;99638.91;;;22.10;28.89
16100;BME280;8154;50.830;12.082;2022-12-20T09:45:30;99643.69;;;22.15;28.84
16100;BME280;8154;50.830;12.082;2022-12-20T09:48:18;99646.53;;;22.13;28.90
16100;BME280;8154;50.830;12.082;2022-12-20T10:00:22;99627.31;;;22.03;28.97
16100;BME280;8154;50.830;12.082;2022-12-20T10:03:12;99632.75;;;22.10;28.96
16100;BME280;8154;50.830;12.082;2022-12-20T10:06:25;99644.50;;;22.15;28.95
16100;BME280;8154;50.830;12.082;2022-12-20T10:19:49;99600.34;;;22.06;28.96
16100;BME280;8154;50.830;12.082;2022-12-20T10:22:55;99600.72;;;22.03;29.06
16100;BME280;8154;50.830;12.082;2022-12-20T10:25:42;99590.44;;;22.00;29.03
16100;BME280;8154;50.830;12.082;2022-12-20T10:28:30;99595.22;;;22.19;28.72
16100;BME280;8154;50.830;12.082;2022-12-20T10:31:17;99599.06;;;22.17;28.79
16100;BME280;8154;50.830;12.082;2022-12-20T10:33:45;99599.25;;;22.15;28.99
16100;BME280;8154;50.830;12.082;2022-12-20T10:36:43;99590.34;;;22.08;28.87
16100;BME280;8154;50.830;12.082;2022-12-20T10:39:50;99579.16;;;22.13;28.81
16100;BME280;8154;50.830;12.082;2022-12-20T10:42:38;99589.09;;;22.04;28.93
16100;BME280;8154;50.830;12.082;2022-12-20T10:45:35;99588.63;;;22.01;28.99
16100;BME280;8154;50.830;12.082;2022-12-20T10:48:38;99574.38;;;22.08;29.04
16100;BME280;8154;50.830;12.082;2022-12-20T10:51:36;99565.84;;;22.13;28.93
16100;BME280;8154;50.830;12.082;2022-12-20T10:54:28;99566.59;;;22.07;29.11
16100;BME280;8154;50.830;12.082;2022-12-20T10:57:27;99554.00;;;22.15;28.93
16100;BME280;8154;50.830;12.082;2022-12-20T11:00:27;99551.28;;;22.09;28.96
16100;BME280;8154;50.830;12.082;2022-12-20T11:03:32;99558.88;;;22.12;28.91
16100;BME280;8154;50.830;12.082;2022-12-20T11:06:20;99556.41;;;22.10;28.92
16100;BME280;8154;50.830;12.082;2022-12-20T11:09:28;99545.47;;;22.05;28.93
16100;BME280;8154;50.830;12.082;2022-12-20T11:12:15;99549.41;;;22.09;29.05
16100;BME280;8154;50.830;12.082;2022-12-20T11:15:37;99549.13;;;22.19;28.86
16100;BME280;8154;50.830;12.082;2022-12-20T11:18:55;99541.72;;;22.14;28.91
16100;BME280;8154;50.830;12.082;2022-12-20T11:22:08;99544.28;;;22.22;28.78
16100;BME280;8154;50.830;12.082;2022-12-20T11:35:59;99529.88;;;22.02;29.12
16100;BME280;8154;50.830;12.082;2022-12-20T11:38:55;99523.16;;;22.06;29.04
16100;BME280;8154;50.830;12.082;2022-12-20T11:45:12;99495.25;;;22.17;28.88
16100;BME280;8154;50.830;12.082;2022-12-20T11:54:09;99472.03;;;22.11;29.00
16100;BME280;8154;50.830;12.082;2022-12-20T11:57:21;99483.88;;;22.08;28.81
16100;BME280;8154;50.830;12.082;2022-12-20T11:59:57;99480.22;;;22.09;28.97
16100;BME280;8154;50.830;12.082;2022-12-20T12:03:51;99469.75;;;22.08;29.09
16100;BME280;8154;50.830;12.082;2022-12-20T12:06:09;99466.16;;;22.15;28.89
16100;BME280;8154;50.830;12.082;2022-12-20T12:11:49;99474.78;;;22.17;28.77
16100;BME280;8154;50.830;12.082;2022-12-20T12:17:36;99467.34;;;22.13;28.87
16100;BME280;8154;50.830;12.082;2022-12-20T12:23:21;99455.44;;;22.09;28.90
16100;BME280;8154;50.830;12.082;2022-12-20T12:26:17;99445.41;;;22.11;28.90
16100;BME280;8154;50.830;12.082;2022-12-20T12:28:57;99441.94;;;22.10;28.93
16100;BME280;8154;50.830;12.082;2022-12-20T12:47:57;99425.16;;;22.10;29.00
16100;BME280;8154;50.830;12.082;2022-12-20T12:50:49;99437.25;;;22.12;29.03
16100;BME280;8154;50.830;12.082;2022-12-20T12:53:42;99431.53;;;22.15;29.14
16100;BME280;8154;50.830;12.082;2022-12-20T13:08:16;99431.16;;;22.18;28.83
16100;BME280;8154;50.830;12.082;2022-12-20T13:11:01;99424.97;;;22.11;28.90
16100;BME280;8154;50.830;12.082;2022-12-20T13:13:46;99413.84;;;22.08;29.16
16100;BME280;8154;50.830;12.082;2022-12-20T13:16:30;99414.31;;;22.11;29.04
16100;BME280;8154;50.830;12.082;2022-12-20T13:25:27;99413.56;;;22.17;28.92
16100;BME280;8154;50.830;12.082;2022-12-20T13:33:48;99420.72;;;22.17;28.87
16100;BME280;8154;50.830;12.082;2022-12-20T13:36:35;99412.31;;;22.13;29.07
16100;BME280;8154;50.830;12.082;2022-12-20T13:45:03;99425.03;;;22.18;28.83
16100;BME280;8154;50.830;12.082;2022-12-20T13:47:57;99423.03;;;22.20;28.91
16100;BME280;8154;50.830;12.082;2022-12-20T13:50:51;99405.19;;;22.20;28.83
16100;BME280;8154;50.830;12.082;2022-12-20T13:53:51;99417.69;;;22.20;28.83
16100;BME280;8154;50.830;12.082;2022-12-20T13:56:43;99423.81;;;22.20;28.98
16100;BME280;8154;50.830;12.082;2022-12-20T13:59:31;99426.03;;;22.17;28.90
16100;BME280;8154;50.830;12.082;2022-12-20T14:02:28;99423.38;;;22.17;28.84
16100;BME280;8154;50.830;12.082;2022-12-20T14:08:33;99412.69;;;22.10;28.92
16100;BME280;8154;50.830;12.082;2022-12-20T14:11:45;99405.00;;;22.22;28.84
16100;BME280;8154;50.830;12.082;2022-12-20T14:14:46;99408.69;;;22.21;28.86
16100;BME280;8154;50.830;12.082;2022-12-20T14:17:48;99396.03;;;22.23;28.88
16100;BME280;8154;50.830;12.082;2022-12-20T14:21:00;99407.84;;;22.20;28.88
16100;BME280;8154;50.830;12.082;2022-12-20T14:23:57;99407.47;;;22.23;28.85
16100;BME280;8154;50.830;12.082;2022-12-20T14:26:50;99401.66;;;22.13;28.92
16100;BME280;8154;50.830;12.082;2022-12-20T14:29:44;99398.34;;;22.11;28.97
16100;BME280;8154;50.830;12.082;2022-12-20T14:32:29;99389.53;;;22.11;29.10
16100;BME280;8154;50.830;12.082;2022-12-20T14:35:23;99389.88;;;22.22;28.90
16100;BME280;8154;50.830;12.082;2022-12-20T14:38:23;99396.22;;;22.21;28.97
16100;BME280;8154;50.830;12.082;2022-12-20T14:41:30;99395.47;;;22.27;28.88
16100;BME280;8154;50.830;12.082;2022-12-20T14:44:21;99393.91;;;22.18;28.97
16100;BME280;8154;50.830;12.082;2022-12-20T14:50:17;99402.44;;;22.14;29.08
16100;BME280;8154;50.830;12.082;2022-12-20T14:53:22;99395.94;;;22.16;28.97
16100;BME280;8154;50.830;12.082;2022-12-20T14:55:50;99401.47;;;22.15;29.03
16100;BME280;8154;50.830;12.082;2022-12-20T14:58:35;99387.13;;;22.16;28.98
16100;BME280;8154;50.830;12.082;2022-12-20T15:01:23;99379.22;;;22.22;28.94
16100;BME280;8154;50.830;12.082;2022-12-20T15:03:58;99352.59;;;22.22;28.87
16100;BME280;8154;50.830;12.082;2022-12-20T15:06:45;99360.78;;;22.21;28.86
16100;BME280;8154;50.830;12.082;2022-12-20T15:09:33;99360.78;;;22.21;28.86
16100;BME280;8154;50.830;12.082;2022-12-20T15:12:18;99365.25;;;22.20;28.97
16100;BME280;8154;50.830;12.082;2022-12-20T15:15:22;99359.75;;;22.22;28.92
16100;BME280;8154;50.830;12.082;2022-12-20T15:17:53;99375.47;;;22.17;28.95
16100;BME280;8154;50.830;12.082;2022-12-20T15:20:39;99386.84;;;22.11;29.08
16100;BME280;8154;50.830;12.082;2022-12-20T15:23:23;99383.09;;;22.20;28.95
16100;BME280;8154;50.830;12.082;2022-12-20T15:26:29;99371.03;;;22.24;28.96
16100;BME280;8154;50.830;12.082;2022-12-20T15:29:26;99376.38;;;22.24;28.92
16100;BME280;8154;50.830;12.082;2022-12-20T15:32:22;99372.88;;;22.23;28.84
16100;BME280;8154;50.830;12.082;2022-12-20T15:34:50;99381.69;;;22.24;28.77
16100;BME280;8154;50.830;12.082;2022-12-20T15:37:34;99375.91;;;22.20;29.00
16100;BME280;8154;50.830;12.082;2022-12-20T15:40:21;99373.44;;;22.19;28.93
16100;BME280;8154;50.830;12.082;2022-12-20T15:43:11;99368.88;;;22.13;29.03
16100;BME280;8154;50.830;12.082;2022-12-20T15:45:56;99391.00;;;22.13;29.05
16100;BME280;8154;50.830;12.082;2022-12-20T15:48:41;99376.56;;;22.22;28.99
16100;BME280;8154;50.830;12.082;2022-12-20T15:51:37;99377.19;;;22.24;28.88
16100;BME280;8154;50.830;12.082;2022-12-20T15:54:30;99366.97;;;22.28;28.98
16100;BME280;8154;50.830;12.082;2022-12-20T15:57:18;99361.84;;;22.26;28.95
16100;BME280;8154;50.830;12.082;2022-12-20T15:59:50;99353.94;;;22.33;28.89
16100;BME280;8154;50.830;12.082;2022-12-20T16:02:34;99362.09;;;22.31;28.91
16100;BME280;8154;50.830;12.082;2022-12-20T16:05:18;99366.38;;;22.26;28.90
16100;BME280;8154;50.830;12.082;2022-12-20T16:08:03;99372.25;;;22.21;28.95
16100;BME280;8154;50.830;12.082;2022-12-20T16:11:04;99359.50;;;22.17;29.03
16100;BME280;8154;50.830;12.082;2022-12-20T16:13:50;99362.16;;;22.17;29.05
16100;BME280;8154;50.830;12.082;2022-12-20T16:16:42;99362.59;;;22.20;29.04
16100;BME280;8154;50.830;12.082;2022-12-20T16:19:27;99355.91;;;22.24;29.06
16100;BME280;8154;50.830;12.082;2022-12-20T16:22:21;99360.84;;;22.27;28.97
16100;BME280;8154;50.830;12.082;2022-12-20T16:25:19;99359.81;;;22.28;28.82
16100;BME280;8154;50.830;12.082;2022-12-20T16:28:26;99371.50;;;22.27;28.85
16100;BME280;8154;50.830;12.082;2022-12-20T16:31:27;99354.22;;;22.23;29.01
16100;BME280;8154;50.830;12.082;2022-12-20T16:34:28;99341.75;;;22.24;28.93
16100;BME280;8154;50.830;12.082;2022-12-20T16:37:12;99348.84;;;22.17;29.08
16100;BME280;8154;50.830;12.082;2022-12-20T16:40:03;99346.63;;;22.20;29.02
16100;BME280;8154;50.830;12.082;2022-12-20T16:42:53;99338.91;;;22.25;28.93
16100;BME280;8154;50.830;12.082;2022-12-20T16:45:39;99336.25;;;22.25;28.80
16100;BME280;8154;50.830;12.082;2022-12-20T16:48:09;99343.19;;;22.26;28.89
16100;BME280;8154;50.830;12.082;2022-12-20T16:50:57;99344.50;;;22.30;28.79
16100;BME280;8154;50.830;12.082;2022-12-20T16:53:41;99345.25;;;22.24;28.85